OMA1552 OOMS-LTBR
Flight info
| Callsign | OMA1552 |
|---|---|
| Flight time | 4h 57m |
| Altitude | 34000 |
| Route | MURM1N MURMA DCT MCT T506 TULBU G652 TOKRA DCT KATIT DCT SITER M440 KSA T503 TAMRO/N0459F360 T503 OVANO L768 FIRAS R655 LEBOR UR655 BALMA L620 VESAR UB545 MUT UL619 OSVEL UT337 KFK UM855 SISPI UT615 SULTA SULT1H |
| Aircraft | A321/M-SDE3FGHIRWY/LB1 |
Departure
| Time | 2026-05-04 20:14 |
|---|---|
| Airport | Muscat International Airport (OOMS) |
Arrival
| Time | 2026-05-05 01:11 |
|---|---|
| Airport | Bursa Yenişehir Airport (LTBR) |
| Time | Latitude | Longitude | Altitude | Speed | Heading |
|---|---|---|---|---|---|
| 2026-05-04 19:53 | 23.60130 | 58.28448 | 64 ft | 0 kts | 172° |
| 2026-05-04 20:00 | 23.60134 | 58.28447 | 64 ft | 7 kts | 172° |
| 2026-05-04 20:01 | 23.60180 | 58.28440 | 64 ft | 7 kts | 172° |
| 2026-05-04 20:01 | 23.60225 | 58.28430 | 64 ft | 7 kts | 150° |
| 2026-05-04 20:01 | 23.60236 | 58.28400 | 64 ft | 0 kts | 85° |
| 2026-05-04 20:05 | 23.60236 | 58.28401 | 64 ft | 1 kts | 85° |
| 2026-05-04 20:05 | 23.60237 | 58.28423 | 64 ft | 5 kts | 86° |
| 2026-05-04 20:05 | 23.60240 | 58.28475 | 64 ft | 8 kts | 85° |
| 2026-05-04 20:05 | 23.60278 | 58.28509 | 64 ft | 8 kts | 351° |
| 2026-05-04 20:06 | 23.60328 | 58.28502 | 64 ft | 7 kts | 352° |
| 2026-05-04 20:06 | 23.60345 | 58.28469 | 64 ft | 5 kts | 271° |
| 2026-05-04 20:06 | 23.60349 | 58.28426 | 64 ft | 7 kts | 274° |
| 2026-05-04 20:06 | 23.60351 | 58.28359 | 64 ft | 11 kts | 264° |
| 2026-05-04 20:07 | 23.60343 | 58.28268 | 64 ft | 14 kts | 265° |
| 2026-05-04 20:07 | 23.60333 | 58.28155 | 64 ft | 16 kts | 264° |
| 2026-05-04 20:07 | 23.60323 | 58.28033 | 64 ft | 16 kts | 264° |
| 2026-05-04 20:07 | 23.60317 | 58.27912 | 64 ft | 16 kts | 284° |
| 2026-05-04 20:08 | 23.60380 | 58.27823 | 64 ft | 14 kts | 315° |
| 2026-05-04 20:08 | 23.60446 | 58.27749 | 64 ft | 13 kts | 312° |
| 2026-05-04 20:08 | 23.60471 | 58.27651 | 64 ft | 14 kts | 266° |
| 2026-05-04 20:08 | 23.60461 | 58.27538 | 64 ft | 17 kts | 264° |
| 2026-05-04 20:09 | 23.60450 | 58.27395 | 64 ft | 21 kts | 264° |
| 2026-05-04 20:09 | 23.60436 | 58.27229 | 64 ft | 23 kts | 265° |
| 2026-05-04 20:09 | 23.60423 | 58.27056 | 64 ft | 23 kts | 265° |
| 2026-05-04 20:09 | 23.60410 | 58.26893 | 64 ft | 21 kts | 265° |
| 2026-05-04 20:10 | 23.60397 | 58.26737 | 64 ft | 20 kts | 265° |
| 2026-05-04 20:10 | 23.60385 | 58.26592 | 64 ft | 19 kts | 265° |
| 2026-05-04 20:10 | 23.60374 | 58.26447 | 64 ft | 19 kts | 265° |
| 2026-05-04 20:10 | 23.60363 | 58.26303 | 64 ft | 19 kts | 265° |
| 2026-05-04 20:11 | 23.60352 | 58.26160 | 64 ft | 19 kts | 265° |
| 2026-05-04 20:11 | 23.60340 | 58.26018 | 64 ft | 19 kts | 265° |
| 2026-05-04 20:11 | 23.60331 | 58.25883 | 64 ft | 13 kts | 280° |
| 2026-05-04 20:11 | 23.60381 | 58.25829 | 64 ft | 11 kts | 335° |
| 2026-05-04 20:12 | 23.60453 | 58.25817 | 64 ft | 11 kts | 355° |
| 2026-05-04 20:12 | 23.60526 | 58.25816 | 64 ft | 11 kts | 15° |
| 2026-05-04 20:12 | 23.60586 | 58.25836 | 64 ft | 7 kts | 36° |
| 2026-05-04 20:12 | 23.60598 | 58.25884 | 64 ft | 7 kts | 85° |
| 2026-05-04 20:13 | 23.60611 | 58.26054 | 64 ft | 51 kts | 85° |
| 2026-05-04 20:13 | 23.60660 | 58.26654 | 64 ft | 106 kts | 85° |
| 2026-05-04 20:13 | 23.60738 | 58.27629 | 64 ft | 151 kts | 85° |
| 2026-05-04 20:13 | 23.60836 | 58.28847 | 244 ft | 167 kts | 85° |
| 2026-05-04 20:14 | 23.60938 | 58.30126 | 789 ft | 172 kts | 84° |
| 2026-05-04 20:14 | 23.61044 | 58.31450 | 1408 ft | 179 kts | 84° |
| 2026-05-04 20:14 | 23.61138 | 58.32853 | 1840 ft | 194 kts | 84° |
| 2026-05-04 20:14 | 23.61238 | 58.34411 | 1937 ft | 218 kts | 84° |
| 2026-05-04 20:15 | 23.61347 | 58.36072 | 2509 ft | 216 kts | 84° |
| 2026-05-04 20:15 | 23.61453 | 58.37713 | 3093 ft | 220 kts | 84° |
| 2026-05-04 20:15 | 23.61561 | 58.39400 | 3558 ft | 229 kts | 83° |
| 2026-05-04 20:15 | 23.62098 | 58.41074 | 3669 ft | 245 kts | 53° |
| 2026-05-04 20:16 | 23.63334 | 58.42259 | 4367 ft | 234 kts | 25° |
| 2026-05-04 20:16 | 23.64900 | 58.42673 | 4898 ft | 234 kts | 358° |
| 2026-05-04 20:16 | 23.66448 | 58.42213 | 5460 ft | 233 kts | 330° |
| 2026-05-04 20:16 | 23.67606 | 58.40988 | 5990 ft | 236 kts | 302° |
| 2026-05-04 20:17 | 23.68090 | 58.39278 | 6516 ft | 240 kts | 276° |
| 2026-05-04 20:17 | 23.67830 | 58.37451 | 6954 ft | 254 kts | 250° |
| 2026-05-04 20:17 | 23.66843 | 58.35822 | 7538 ft | 257 kts | 233° |
| 2026-05-04 20:17 | 23.65694 | 58.34323 | 8210 ft | 260 kts | 232° |
| 2026-05-04 20:18 | 23.64530 | 58.32832 | 8778 ft | 262 kts | 232° |
| 2026-05-04 20:18 | 23.63336 | 58.31318 | 9380 ft | 265 kts | 232° |
| 2026-05-04 20:18 | 23.62112 | 58.29776 | 9779 ft | 277 kts | 232° |
| 2026-05-04 20:18 | 23.60792 | 58.28122 | 9934 ft | 298 kts | 231° |
| 2026-05-04 20:19 | 23.59411 | 58.26407 | 10427 ft | 308 kts | 232° |
| 2026-05-04 20:19 | 23.58060 | 58.24487 | 10514 ft | 331 kts | 237° |
| 2026-05-04 20:19 | 23.57177 | 58.23075 | 10581 ft | 346 kts | 238° |
| 2026-05-04 20:19 | 23.55825 | 58.20887 | 11238 ft | 348 kts | 238° |
| 2026-05-04 20:20 | 23.54470 | 58.18688 | 11900 ft | 352 kts | 238° |
| 2026-05-04 20:20 | 23.53099 | 58.16458 | 12547 ft | 355 kts | 239° |
| 2026-05-04 20:20 | 23.51263 | 58.13469 | 13379 ft | 360 kts | 239° |
| 2026-05-04 20:20 | 23.50318 | 58.11929 | 13800 ft | 363 kts | 239° |
| 2026-05-04 20:21 | 23.48925 | 58.09658 | 14402 ft | 366 kts | 239° |
| 2026-05-04 20:21 | 23.47497 | 58.07332 | 14996 ft | 370 kts | 239° |
| 2026-05-04 20:21 | 23.44613 | 58.02633 | 16137 ft | 377 kts | 239° |
| 2026-05-04 20:22 | 23.43148 | 58.00246 | 16688 ft | 380 kts | 239° |
| 2026-05-04 20:22 | 23.41672 | 57.97843 | 17222 ft | 384 kts | 239° |
| 2026-05-04 20:22 | 23.40175 | 57.95408 | 17749 ft | 387 kts | 239° |
| 2026-05-04 20:22 | 23.38689 | 57.92990 | 18256 ft | 391 kts | 239° |
| 2026-05-04 20:23 | 23.37175 | 57.90527 | 18805 ft | 392 kts | 239° |
| 2026-05-04 20:23 | 23.35649 | 57.88047 | 19320 ft | 395 kts | 239° |
| 2026-05-04 20:23 | 23.34118 | 57.85558 | 19822 ft | 397 kts | 239° |
| 2026-05-04 20:23 | 23.32573 | 57.83050 | 20302 ft | 399 kts | 239° |
| 2026-05-04 20:24 | 23.31020 | 57.80528 | 20769 ft | 402 kts | 239° |
| 2026-05-04 20:24 | 23.29461 | 57.77998 | 21217 ft | 404 kts | 238° |
| 2026-05-04 20:24 | 23.27910 | 57.75482 | 21654 ft | 406 kts | 238° |
| 2026-05-04 20:24 | 23.26325 | 57.72911 | 21995 ft | 411 kts | 238° |
| 2026-05-04 20:25 | 23.24731 | 57.70329 | 22451 ft | 412 kts | 238° |
| 2026-05-04 20:25 | 23.23123 | 57.67725 | 22836 ft | 414 kts | 238° |
| 2026-05-04 20:25 | 23.21512 | 57.65116 | 23221 ft | 416 kts | 238° |
| 2026-05-04 20:25 | 23.19889 | 57.62491 | 23598 ft | 418 kts | 238° |
| 2026-05-04 20:26 | 23.18276 | 57.59884 | 23919 ft | 421 kts | 238° |
| 2026-05-04 20:26 | 23.16636 | 57.57233 | 24281 ft | 423 kts | 238° |
| 2026-05-04 20:26 | 23.14990 | 57.54574 | 24638 ft | 424 kts | 239° |
| 2026-05-04 20:26 | 23.13333 | 57.51897 | 24970 ft | 426 kts | 239° |
| 2026-05-04 20:27 | 23.11696 | 57.49254 | 25299 ft | 428 kts | 239° |
| 2026-05-04 20:27 | 23.10032 | 57.46568 | 25621 ft | 429 kts | 239° |
| 2026-05-04 20:27 | 23.08361 | 57.43871 | 25931 ft | 430 kts | 239° |
| 2026-05-04 20:27 | 23.06686 | 57.41170 | 26225 ft | 432 kts | 239° |
| 2026-05-04 20:28 | 23.05004 | 57.38456 | 26515 ft | 433 kts | 239° |
| 2026-05-04 20:28 | 23.03316 | 57.35735 | 26794 ft | 434 kts | 239° |
| 2026-05-04 20:28 | 23.01626 | 57.33013 | 27062 ft | 435 kts | 239° |
| 2026-05-04 20:28 | 22.99975 | 57.30252 | 27319 ft | 435 kts | 243° |
| 2026-05-04 20:29 | 22.98565 | 57.27390 | 27583 ft | 435 kts | 245° |
| 2026-05-04 20:29 | 22.97159 | 57.24475 | 27827 ft | 436 kts | 245° |
| 2026-05-04 20:29 | 22.95758 | 57.21558 | 28073 ft | 437 kts | 246° |
| 2026-05-04 20:29 | 22.94354 | 57.18628 | 28321 ft | 437 kts | 246° |
| 2026-05-04 20:30 | 22.92950 | 57.15693 | 28561 ft | 438 kts | 246° |
| 2026-05-04 20:30 | 22.91546 | 57.12755 | 28797 ft | 439 kts | 246° |
| 2026-05-04 20:30 | 22.90138 | 57.09805 | 29031 ft | 440 kts | 246° |
| 2026-05-04 20:30 | 22.88733 | 57.06858 | 29262 ft | 441 kts | 246° |
| 2026-05-04 20:31 | 22.87324 | 57.03902 | 29541 ft | 440 kts | 246° |
| 2026-05-04 20:31 | 22.85939 | 57.00996 | 29850 ft | 439 kts | 246° |
| 2026-05-04 20:31 | 22.84534 | 56.98047 | 30018 ft | 441 kts | 246° |
| 2026-05-04 20:31 | 22.83123 | 56.95084 | 30239 ft | 441 kts | 246° |
| 2026-05-04 20:32 | 22.81704 | 56.92127 | 30449 ft | 442 kts | 245° |
| 2026-05-04 20:32 | 22.80276 | 56.89161 | 30640 ft | 443 kts | 245° |
| 2026-05-04 20:32 | 22.78850 | 56.86199 | 30838 ft | 444 kts | 245° |
| 2026-05-04 20:32 | 22.77415 | 56.83217 | 31028 ft | 445 kts | 245° |
| 2026-05-04 20:33 | 22.76003 | 56.80282 | 31268 ft | 445 kts | 245° |
| 2026-05-04 20:33 | 22.74574 | 56.77312 | 31610 ft | 442 kts | 245° |
| 2026-05-04 20:33 | 22.73154 | 56.74362 | 31883 ft | 440 kts | 245° |
| 2026-05-04 20:33 | 22.71739 | 56.71421 | 32137 ft | 439 kts | 245° |
| 2026-05-04 20:34 | 22.70327 | 56.68488 | 32403 ft | 438 kts | 245° |
| 2026-05-04 20:34 | 22.68915 | 56.65555 | 32667 ft | 437 kts | 245° |
| 2026-05-04 20:34 | 22.67513 | 56.62644 | 32923 ft | 436 kts | 245° |
| 2026-05-04 20:34 | 22.66131 | 56.59776 | 33172 ft | 434 kts | 245° |
| 2026-05-04 20:35 | 22.64734 | 56.56877 | 33422 ft | 433 kts | 245° |
| 2026-05-04 20:35 | 22.63336 | 56.53978 | 33640 ft | 435 kts | 245° |
| 2026-05-04 20:35 | 22.60534 | 56.48169 | 33747 ft | 433 kts | 245° |
| 2026-05-04 20:36 | 22.57745 | 56.42394 | 33775 ft | 432 kts | 244° |
| 2026-05-04 20:36 | 22.54952 | 56.36627 | 33783 ft | 433 kts | 244° |
| 2026-05-04 20:37 | 22.52166 | 56.30902 | 33789 ft | 433 kts | 244° |
| 2026-05-04 20:37 | 22.49360 | 56.25127 | 33790 ft | 435 kts | 244° |
| 2026-05-04 20:38 | 22.46529 | 56.19299 | 33789 ft | 437 kts | 244° |
| 2026-05-04 20:38 | 22.43701 | 56.13480 | 33792 ft | 437 kts | 244° |
| 2026-05-04 20:39 | 22.40891 | 56.07697 | 33793 ft | 437 kts | 244° |
| 2026-05-04 20:39 | 22.38061 | 56.01883 | 33797 ft | 437 kts | 244° |
| 2026-05-04 20:40 | 22.35206 | 55.96076 | 33799 ft | 437 kts | 244° |
| 2026-05-04 20:40 | 22.32354 | 55.90278 | 33801 ft | 437 kts | 244° |
| 2026-05-04 20:41 | 22.29521 | 55.84516 | 33803 ft | 437 kts | 244° |
| 2026-05-04 20:41 | 22.26666 | 55.78711 | 33803 ft | 437 kts | 244° |
| 2026-05-04 20:42 | 22.23809 | 55.72904 | 33803 ft | 437 kts | 244° |
| 2026-05-04 20:42 | 22.20972 | 55.67130 | 33802 ft | 437 kts | 244° |
| 2026-05-04 20:43 | 22.18151 | 55.61295 | 33805 ft | 437 kts | 248° |
| 2026-05-04 20:43 | 22.17211 | 55.58229 | 33806 ft | 435 kts | 259° |
| 2026-05-04 20:43 | 22.16867 | 55.54993 | 33805 ft | 434 kts | 270° |
| 2026-05-04 20:44 | 22.17154 | 55.51756 | 33804 ft | 435 kts | 281° |
| 2026-05-04 20:44 | 22.17702 | 55.48546 | 33803 ft | 435 kts | 279° |
| 2026-05-04 20:44 | 22.18987 | 55.42158 | 33798 ft | 436 kts | 282° |
| 2026-05-04 20:45 | 22.20400 | 55.35799 | 33795 ft | 436 kts | 283° |
| 2026-05-04 20:45 | 22.21829 | 55.29443 | 33793 ft | 436 kts | 283° |
| 2026-05-04 20:46 | 22.23264 | 55.23074 | 33791 ft | 436 kts | 283° |
| 2026-05-04 20:46 | 22.24691 | 55.16742 | 33790 ft | 436 kts | 283° |
| 2026-05-04 20:47 | 22.26124 | 55.10375 | 33789 ft | 436 kts | 283° |
| 2026-05-04 20:47 | 22.27556 | 55.04006 | 33788 ft | 436 kts | 283° |
| 2026-05-04 20:48 | 22.28989 | 54.97617 | 33788 ft | 436 kts | 282° |
| 2026-05-04 20:48 | 22.30410 | 54.91272 | 33788 ft | 436 kts | 282° |
| 2026-05-04 20:49 | 22.31836 | 54.84887 | 33788 ft | 436 kts | 282° |
| 2026-05-04 20:49 | 22.33258 | 54.78509 | 33788 ft | 436 kts | 282° |
| 2026-05-04 20:50 | 22.34667 | 54.72177 | 33788 ft | 436 kts | 282° |
| 2026-05-04 20:50 | 22.36084 | 54.65795 | 33789 ft | 436 kts | 282° |
| 2026-05-04 20:51 | 22.37497 | 54.59423 | 33788 ft | 436 kts | 282° |
| 2026-05-04 20:51 | 22.38907 | 54.53046 | 33788 ft | 436 kts | 282° |
| 2026-05-04 20:52 | 22.40316 | 54.46665 | 33787 ft | 437 kts | 282° |
| 2026-05-04 20:52 | 22.41715 | 54.40315 | 33786 ft | 437 kts | 282° |
| 2026-05-04 20:53 | 22.43119 | 54.33926 | 33786 ft | 437 kts | 282° |
| 2026-05-04 20:53 | 22.44520 | 54.27538 | 33786 ft | 437 kts | 282° |
| 2026-05-04 20:54 | 22.45920 | 54.21144 | 33786 ft | 437 kts | 282° |
| 2026-05-04 20:54 | 22.47307 | 54.14796 | 33786 ft | 437 kts | 282° |
| 2026-05-04 20:55 | 22.48702 | 54.08398 | 33786 ft | 437 kts | 282° |
| 2026-05-04 20:55 | 22.50093 | 54.02006 | 33786 ft | 436 kts | 282° |
| 2026-05-04 20:56 | 22.51472 | 53.95650 | 33770 ft | 433 kts | 282° |
| 2026-05-04 20:56 | 22.52838 | 53.89347 | 33768 ft | 433 kts | 282° |
| 2026-05-04 20:57 | 22.54210 | 53.83003 | 33767 ft | 433 kts | 282° |
| 2026-05-04 20:57 | 22.55580 | 53.76654 | 33767 ft | 433 kts | 282° |
| 2026-05-04 20:58 | 22.56948 | 53.70305 | 33766 ft | 433 kts | 282° |
| 2026-05-04 20:58 | 22.58313 | 53.63954 | 33765 ft | 433 kts | 282° |
| 2026-05-04 20:59 | 22.59667 | 53.57643 | 33765 ft | 433 kts | 282° |
| 2026-05-04 20:59 | 22.61025 | 53.51296 | 33764 ft | 433 kts | 282° |
| 2026-05-04 21:00 | 22.62384 | 53.44939 | 33763 ft | 433 kts | 282° |
| 2026-05-04 21:00 | 22.63743 | 53.38564 | 33763 ft | 433 kts | 282° |
| 2026-05-04 21:01 | 22.65094 | 53.32213 | 33763 ft | 433 kts | 281° |
| 2026-05-04 21:01 | 22.66438 | 53.25883 | 33763 ft | 433 kts | 281° |
| 2026-05-04 21:02 | 22.67786 | 53.19519 | 33762 ft | 433 kts | 281° |
| 2026-05-04 21:02 | 22.69134 | 53.13144 | 33762 ft | 433 kts | 281° |
| 2026-05-04 21:03 | 22.70478 | 53.06775 | 33761 ft | 433 kts | 281° |
| 2026-05-04 21:03 | 22.71812 | 53.00442 | 33761 ft | 433 kts | 281° |
| 2026-05-04 21:04 | 22.73151 | 52.94068 | 33768 ft | 434 kts | 281° |
| 2026-05-04 21:04 | 22.74487 | 52.87696 | 33770 ft | 434 kts | 281° |
| 2026-05-04 21:05 | 22.75820 | 52.81327 | 33772 ft | 434 kts | 281° |
| 2026-05-04 21:05 | 22.77153 | 52.74943 | 33776 ft | 434 kts | 281° |
| 2026-05-04 21:06 | 22.78475 | 52.68596 | 33781 ft | 434 kts | 281° |
| 2026-05-04 21:06 | 22.79802 | 52.62218 | 33788 ft | 434 kts | 281° |
| 2026-05-04 21:07 | 22.81127 | 52.55830 | 33797 ft | 434 kts | 281° |
| 2026-05-04 21:07 | 22.82228 | 52.50515 | 33806 ft | 434 kts | 281° |
| 2026-05-04 21:08 | 22.84532 | 52.43313 | 33845 ft | 436 kts | 290° |
| 2026-05-04 21:08 | 22.86465 | 52.38255 | 33850 ft | 436 kts | 291° |
| 2026-05-04 21:09 | 22.88834 | 52.32209 | 33855 ft | 436 kts | 291° |
| 2026-05-04 21:09 | 22.91215 | 52.26162 | 33860 ft | 436 kts | 291° |
| 2026-05-04 21:10 | 22.93597 | 52.20118 | 33864 ft | 435 kts | 291° |
| 2026-05-04 21:10 | 22.95967 | 52.14101 | 33868 ft | 435 kts | 291° |
| 2026-05-04 21:11 | 22.98352 | 52.08043 | 33872 ft | 435 kts | 291° |
| 2026-05-04 21:11 | 23.00731 | 52.01992 | 33873 ft | 435 kts | 291° |
| 2026-05-04 21:12 | 23.03089 | 51.95989 | 33873 ft | 435 kts | 291° |
| 2026-05-04 21:12 | 23.05460 | 51.89942 | 33873 ft | 435 kts | 291° |
| 2026-05-04 21:13 | 23.07833 | 51.83885 | 33871 ft | 435 kts | 291° |
| 2026-05-04 21:13 | 23.10198 | 51.77836 | 33869 ft | 434 kts | 291° |
| 2026-05-04 21:14 | 23.12559 | 51.71792 | 33866 ft | 434 kts | 291° |
| 2026-05-04 21:14 | 23.14903 | 51.65782 | 33863 ft | 434 kts | 291° |
| 2026-05-04 21:15 | 23.17262 | 51.59725 | 33861 ft | 434 kts | 291° |
| 2026-05-04 21:15 | 23.19619 | 51.53666 | 33859 ft | 434 kts | 291° |
| 2026-05-04 21:16 | 23.21959 | 51.47641 | 33858 ft | 434 kts | 291° |
| 2026-05-04 21:16 | 23.24309 | 51.41584 | 33857 ft | 434 kts | 291° |
| 2026-05-04 21:17 | 23.26659 | 51.35516 | 33855 ft | 434 kts | 291° |
| 2026-05-04 21:17 | 23.28990 | 51.29491 | 33854 ft | 434 kts | 291° |
| 2026-05-04 21:18 | 23.31333 | 51.23426 | 33853 ft | 434 kts | 291° |
| 2026-05-04 21:18 | 23.33672 | 51.17364 | 33851 ft | 434 kts | 291° |
| 2026-05-04 21:19 | 23.36011 | 51.11292 | 33849 ft | 434 kts | 290° |
| 2026-05-04 21:19 | 23.38330 | 51.05263 | 33846 ft | 434 kts | 290° |
| 2026-05-04 21:20 | 23.40662 | 50.99194 | 33842 ft | 434 kts | 290° |
| 2026-05-04 21:20 | 23.42975 | 50.93165 | 33838 ft | 433 kts | 290° |
| 2026-05-04 21:21 | 23.45300 | 50.87098 | 33834 ft | 433 kts | 290° |
| 2026-05-04 21:21 | 23.47616 | 50.81046 | 33830 ft | 432 kts | 290° |
| 2026-05-04 21:22 | 23.49913 | 50.75034 | 33825 ft | 432 kts | 290° |
| 2026-05-04 21:22 | 23.52217 | 50.68996 | 33804 ft | 431 kts | 290° |
| 2026-05-04 21:23 | 23.54521 | 50.62948 | 33797 ft | 431 kts | 290° |
| 2026-05-04 21:23 | 23.56818 | 50.56910 | 33793 ft | 431 kts | 290° |
| 2026-05-04 21:24 | 23.59102 | 50.50902 | 33788 ft | 430 kts | 290° |
| 2026-05-04 21:24 | 23.61386 | 50.44882 | 33786 ft | 429 kts | 290° |
| 2026-05-04 21:25 | 23.63666 | 50.38865 | 33785 ft | 429 kts | 290° |
| 2026-05-04 21:25 | 23.65935 | 50.32869 | 33783 ft | 429 kts | 290° |
| 2026-05-04 21:26 | 23.68212 | 50.26845 | 33781 ft | 429 kts | 290° |
| 2026-05-04 21:26 | 23.70489 | 50.20811 | 33778 ft | 429 kts | 290° |
| 2026-05-04 21:27 | 23.72750 | 50.14812 | 33774 ft | 429 kts | 290° |
| 2026-05-04 21:27 | 23.75019 | 50.08785 | 33771 ft | 429 kts | 290° |
| 2026-05-04 21:28 | 23.77288 | 50.02748 | 33768 ft | 429 kts | 290° |
| 2026-05-04 21:28 | 23.79548 | 49.96726 | 33768 ft | 428 kts | 290° |
| 2026-05-04 21:29 | 23.81792 | 49.90740 | 33767 ft | 429 kts | 289° |
| 2026-05-04 21:29 | 23.84049 | 49.84710 | 33767 ft | 428 kts | 289° |
| 2026-05-04 21:30 | 23.86306 | 49.78669 | 33769 ft | 428 kts | 289° |
| 2026-05-04 21:30 | 23.88546 | 49.72669 | 33773 ft | 428 kts | 289° |
| 2026-05-04 21:31 | 23.91918 | 49.63619 | 33780 ft | 428 kts | 289° |
| 2026-05-04 21:32 | 23.94166 | 49.57576 | 33784 ft | 428 kts | 289° |
| 2026-05-04 21:32 | 23.96406 | 49.51544 | 33790 ft | 428 kts | 289° |
| 2026-05-04 21:33 | 23.98641 | 49.45518 | 33795 ft | 428 kts | 289° |
| 2026-05-04 21:33 | 24.00861 | 49.39524 | 33796 ft | 427 kts | 289° |
| 2026-05-04 21:34 | 24.03089 | 49.33498 | 33797 ft | 426 kts | 289° |
| 2026-05-04 21:34 | 24.05314 | 49.27475 | 33802 ft | 426 kts | 289° |
| 2026-05-04 21:35 | 24.07522 | 49.21489 | 33806 ft | 426 kts | 289° |
| 2026-05-04 21:35 | 24.09742 | 49.15460 | 33809 ft | 426 kts | 289° |
| 2026-05-04 21:36 | 24.11946 | 49.09466 | 33810 ft | 426 kts | 289° |
| 2026-05-04 21:36 | 24.14157 | 49.03447 | 33812 ft | 426 kts | 289° |
| 2026-05-04 21:37 | 24.16366 | 48.97423 | 33812 ft | 426 kts | 289° |
| 2026-05-04 21:37 | 24.18551 | 48.91429 | 33812 ft | 425 kts | 288° |
| 2026-05-04 21:38 | 24.20569 | 48.85335 | 33811 ft | 425 kts | 287° |
| 2026-05-04 21:38 | 24.22581 | 48.79241 | 33810 ft | 425 kts | 287° |
| 2026-05-04 21:39 | 24.24585 | 48.73189 | 33808 ft | 425 kts | 287° |
| 2026-05-04 21:39 | 24.26606 | 48.67100 | 33806 ft | 425 kts | 287° |
| 2026-05-04 21:40 | 24.28626 | 48.61015 | 33805 ft | 424 kts | 287° |
| 2026-05-04 21:40 | 24.30646 | 48.54931 | 33804 ft | 424 kts | 287° |
| 2026-05-04 21:41 | 24.32664 | 48.48847 | 33804 ft | 424 kts | 287° |
| 2026-05-04 21:41 | 24.34680 | 48.42766 | 33803 ft | 424 kts | 287° |
| 2026-05-04 21:42 | 24.36684 | 48.36713 | 33802 ft | 424 kts | 287° |
| 2026-05-04 21:42 | 24.38700 | 48.30616 | 33801 ft | 424 kts | 287° |
| 2026-05-04 21:43 | 24.40709 | 48.24534 | 33812 ft | 424 kts | 287° |
| 2026-05-04 21:43 | 24.42705 | 48.18482 | 33813 ft | 424 kts | 287° |
| 2026-05-04 21:44 | 24.44708 | 48.12398 | 33812 ft | 424 kts | 287° |
| 2026-05-04 21:44 | 24.46710 | 48.06310 | 33812 ft | 424 kts | 287° |
| 2026-05-04 21:45 | 24.48706 | 48.00227 | 33812 ft | 424 kts | 287° |
| 2026-05-04 21:45 | 24.50702 | 47.94140 | 33812 ft | 423 kts | 287° |
| 2026-05-04 21:46 | 24.52694 | 47.88053 | 33812 ft | 423 kts | 287° |
| 2026-05-04 21:46 | 24.54682 | 47.81968 | 33837 ft | 423 kts | 286° |
| 2026-05-04 21:47 | 24.56824 | 47.75965 | 33840 ft | 424 kts | 289° |
| 2026-05-04 21:47 | 24.59098 | 47.69967 | 33840 ft | 424 kts | 289° |
| 2026-05-04 21:48 | 24.61375 | 47.63980 | 33840 ft | 424 kts | 289° |
| 2026-05-04 21:48 | 24.63645 | 47.58024 | 33840 ft | 424 kts | 289° |
| 2026-05-04 21:49 | 24.65932 | 47.52027 | 33841 ft | 423 kts | 289° |
| 2026-05-04 21:49 | 24.68200 | 47.46078 | 33845 ft | 421 kts | 289° |
| 2026-05-04 21:50 | 24.70464 | 47.40130 | 33870 ft | 421 kts | 289° |
| 2026-05-04 21:50 | 24.72727 | 47.34180 | 33910 ft | 422 kts | 289° |
| 2026-05-04 21:51 | 24.74998 | 47.28210 | 33927 ft | 423 kts | 289° |
| 2026-05-04 21:51 | 24.77251 | 47.22281 | 33927 ft | 422 kts | 289° |
| 2026-05-04 21:52 | 24.79515 | 47.16313 | 33926 ft | 422 kts | 289° |
| 2026-05-04 21:52 | 24.81778 | 47.10340 | 33924 ft | 422 kts | 289° |
| 2026-05-04 21:53 | 24.84022 | 47.04409 | 33923 ft | 421 kts | 289° |
| 2026-05-04 21:53 | 24.86276 | 46.98443 | 33922 ft | 421 kts | 289° |
| 2026-05-04 21:54 | 24.88529 | 46.92471 | 33922 ft | 422 kts | 289° |
| 2026-05-04 21:54 | 24.90767 | 46.86531 | 33923 ft | 423 kts | 289° |
| 2026-05-04 21:55 | 24.93028 | 46.80523 | 33921 ft | 424 kts | 289° |
| 2026-05-04 21:55 | 24.95294 | 46.74496 | 33916 ft | 425 kts | 289° |
| 2026-05-04 21:56 | 24.97859 | 46.68662 | 33912 ft | 430 kts | 298° |
| 2026-05-04 21:56 | 25.01718 | 46.63566 | 33915 ft | 437 kts | 311° |
| 2026-05-04 21:57 | 25.06128 | 46.58944 | 33916 ft | 437 kts | 312° |
| 2026-05-04 21:57 | 25.10554 | 46.54344 | 33919 ft | 437 kts | 312° |
| 2026-05-04 21:58 | 25.14986 | 46.49758 | 33921 ft | 437 kts | 312° |
| 2026-05-04 21:58 | 25.18685 | 46.45944 | 33918 ft | 437 kts | 312° |
| 2026-05-04 21:59 | 25.23147 | 46.41355 | 33905 ft | 437 kts | 311° |
| 2026-05-04 21:59 | 25.27600 | 46.36774 | 33904 ft | 437 kts | 311° |
| 2026-05-04 22:00 | 25.32016 | 46.32232 | 33904 ft | 437 kts | 311° |
| 2026-05-04 22:00 | 25.36473 | 46.27651 | 33908 ft | 436 kts | 311° |
| 2026-05-04 22:01 | 25.40924 | 46.23073 | 33911 ft | 436 kts | 311° |
| 2026-05-04 22:01 | 25.45368 | 46.18499 | 33913 ft | 435 kts | 311° |
| 2026-05-04 22:02 | 25.49777 | 46.13959 | 33915 ft | 435 kts | 310° |
| 2026-05-04 22:02 | 25.54206 | 46.09393 | 33917 ft | 434 kts | 310° |
| 2026-05-04 22:03 | 25.58635 | 46.04824 | 33920 ft | 434 kts | 310° |
| 2026-05-04 22:03 | 25.63018 | 46.00290 | 33922 ft | 433 kts | 310° |
| 2026-05-04 22:04 | 25.67421 | 45.95708 | 33927 ft | 433 kts | 310° |
| 2026-05-04 22:04 | 25.71809 | 45.91145 | 33929 ft | 432 kts | 309° |
| 2026-05-04 22:05 | 25.76205 | 45.86576 | 33930 ft | 432 kts | 309° |
| 2026-05-04 22:05 | 25.80562 | 45.82047 | 33931 ft | 432 kts | 309° |
| 2026-05-04 22:06 | 25.84958 | 45.77477 | 33931 ft | 432 kts | 309° |
| 2026-05-04 22:06 | 25.89345 | 45.72902 | 33931 ft | 432 kts | 309° |
| 2026-05-04 22:07 | 25.93738 | 45.68317 | 33931 ft | 432 kts | 309° |
| 2026-05-04 22:07 | 25.98123 | 45.63740 | 33931 ft | 432 kts | 309° |
| 2026-05-04 22:08 | 26.02486 | 45.59186 | 33929 ft | 432 kts | 309° |
| 2026-05-04 22:08 | 26.06867 | 45.54609 | 33926 ft | 432 kts | 309° |
| 2026-05-04 22:09 | 26.11257 | 45.50020 | 33925 ft | 432 kts | 309° |
| 2026-05-04 22:09 | 26.15639 | 45.45435 | 33924 ft | 431 kts | 309° |
| 2026-05-04 22:10 | 26.20008 | 45.40846 | 33922 ft | 432 kts | 309° |
| 2026-05-04 22:10 | 26.24343 | 45.36289 | 33922 ft | 431 kts | 309° |
| 2026-05-04 22:11 | 26.28707 | 45.31702 | 33920 ft | 431 kts | 309° |
| 2026-05-04 22:11 | 26.33081 | 45.27108 | 33916 ft | 431 kts | 309° |
| 2026-05-04 22:12 | 26.37449 | 45.22526 | 33913 ft | 431 kts | 309° |
| 2026-05-04 22:12 | 26.41792 | 45.17967 | 33910 ft | 430 kts | 309° |
| 2026-05-04 22:13 | 26.46153 | 45.13389 | 33904 ft | 430 kts | 309° |
| 2026-05-04 22:13 | 26.50503 | 45.08818 | 33894 ft | 429 kts | 308° |
| 2026-05-04 22:14 | 26.54847 | 45.04250 | 33880 ft | 428 kts | 308° |
| 2026-05-04 22:14 | 26.59185 | 44.99680 | 33874 ft | 427 kts | 308° |
| 2026-05-04 22:15 | 26.63506 | 44.95112 | 33874 ft | 427 kts | 308° |
| 2026-05-04 22:15 | 26.67794 | 44.90580 | 33869 ft | 427 kts | 308° |
| 2026-05-04 22:16 | 26.72112 | 44.86014 | 33866 ft | 427 kts | 308° |
| 2026-05-04 22:16 | 26.76424 | 44.81451 | 33862 ft | 426 kts | 308° |
| 2026-05-04 22:17 | 26.80724 | 44.76882 | 33862 ft | 426 kts | 308° |
| 2026-05-04 22:17 | 26.85032 | 44.72302 | 33862 ft | 426 kts | 308° |
| 2026-05-04 22:18 | 26.89312 | 44.67749 | 33862 ft | 426 kts | 308° |
| 2026-05-04 22:18 | 26.93614 | 44.63172 | 33865 ft | 426 kts | 308° |
| 2026-05-04 22:19 | 26.97916 | 44.58591 | 33865 ft | 426 kts | 307° |
| 2026-05-04 22:19 | 27.02177 | 44.54033 | 33868 ft | 426 kts | 307° |
| 2026-05-04 22:20 | 27.06461 | 44.49445 | 33872 ft | 426 kts | 307° |
| 2026-05-04 22:20 | 27.10749 | 44.44852 | 33878 ft | 426 kts | 307° |
| 2026-05-04 22:21 | 27.15036 | 44.40257 | 33882 ft | 425 kts | 307° |
| 2026-05-04 22:21 | 27.19318 | 44.35662 | 33885 ft | 425 kts | 307° |
| 2026-05-04 22:22 | 27.23571 | 44.31096 | 33888 ft | 425 kts | 307° |
| 2026-05-04 22:22 | 27.27856 | 44.26496 | 33889 ft | 425 kts | 307° |
| 2026-05-04 22:23 | 27.32142 | 44.21891 | 33889 ft | 425 kts | 307° |
| 2026-05-04 22:23 | 27.36399 | 44.17315 | 33889 ft | 425 kts | 307° |
| 2026-05-04 22:24 | 27.40675 | 44.12713 | 33888 ft | 425 kts | 307° |
| 2026-05-04 22:24 | 27.44954 | 44.08105 | 33887 ft | 425 kts | 307° |
| 2026-05-04 22:25 | 27.49223 | 44.03502 | 33886 ft | 425 kts | 307° |
| 2026-05-04 22:25 | 27.53492 | 43.98895 | 33886 ft | 425 kts | 306° |
| 2026-05-04 22:26 | 27.57756 | 43.94287 | 33884 ft | 425 kts | 306° |
| 2026-05-04 22:26 | 27.61998 | 43.89698 | 33883 ft | 424 kts | 306° |
| 2026-05-04 22:27 | 27.66263 | 43.85080 | 33880 ft | 424 kts | 306° |
| 2026-05-04 22:27 | 27.70519 | 43.80465 | 33879 ft | 424 kts | 306° |
| 2026-05-04 22:28 | 27.74775 | 43.75845 | 33879 ft | 424 kts | 306° |
| 2026-05-04 22:28 | 27.79011 | 43.71242 | 33879 ft | 424 kts | 306° |
| 2026-05-04 22:29 | 27.83261 | 43.66618 | 33878 ft | 424 kts | 306° |
| 2026-05-04 22:29 | 27.87334 | 43.61844 | 33877 ft | 420 kts | 303° |
| 2026-05-04 22:30 | 27.91299 | 43.57043 | 33878 ft | 420 kts | 303° |
| 2026-05-04 22:30 | 27.95291 | 43.52216 | 33878 ft | 420 kts | 303° |
| 2026-05-04 22:31 | 27.99285 | 43.47390 | 33878 ft | 419 kts | 303° |
| 2026-05-04 22:31 | 28.03276 | 43.42568 | 33877 ft | 419 kts | 303° |
| 2026-05-04 22:32 | 28.07242 | 43.37773 | 33877 ft | 419 kts | 303° |
| 2026-05-04 22:32 | 28.11230 | 43.32949 | 33877 ft | 419 kts | 303° |
| 2026-05-04 22:33 | 28.15218 | 43.28121 | 33875 ft | 419 kts | 303° |
| 2026-05-04 22:33 | 28.19204 | 43.23291 | 33875 ft | 419 kts | 303° |
| 2026-05-04 22:34 | 28.23168 | 43.18480 | 33875 ft | 419 kts | 303° |
| 2026-05-04 22:34 | 28.27156 | 43.13637 | 33874 ft | 419 kts | 303° |
| 2026-05-04 22:35 | 28.31134 | 43.08800 | 33875 ft | 419 kts | 303° |
| 2026-05-04 22:35 | 28.35087 | 43.03988 | 33875 ft | 419 kts | 303° |
| 2026-05-04 22:36 | 28.39065 | 42.99140 | 33875 ft | 419 kts | 303° |
| 2026-05-04 22:36 | 28.43031 | 42.94301 | 33875 ft | 418 kts | 302° |
| 2026-05-04 22:37 | 28.46993 | 42.89461 | 33874 ft | 418 kts | 302° |
| 2026-05-04 22:37 | 28.50950 | 42.84622 | 33881 ft | 418 kts | 302° |
| 2026-05-04 22:38 | 28.54908 | 42.79774 | 33888 ft | 418 kts | 302° |
| 2026-05-04 22:38 | 28.58838 | 42.74957 | 33890 ft | 418 kts | 302° |
| 2026-05-04 22:39 | 28.62791 | 42.70104 | 33893 ft | 417 kts | 302° |
| 2026-05-04 22:39 | 28.66726 | 42.65228 | 33895 ft | 417 kts | 302° |
| 2026-05-04 22:40 | 28.70622 | 42.60385 | 33899 ft | 417 kts | 302° |
| 2026-05-04 22:40 | 28.74556 | 42.55508 | 33904 ft | 417 kts | 302° |
| 2026-05-04 22:41 | 28.78466 | 42.50666 | 33909 ft | 417 kts | 302° |
| 2026-05-04 22:41 | 28.82391 | 42.45808 | 33917 ft | 416 kts | 302° |
| 2026-05-04 22:42 | 28.86314 | 42.40949 | 33923 ft | 416 kts | 302° |
| 2026-05-04 22:42 | 28.90240 | 42.36084 | 33931 ft | 416 kts | 302° |
| 2026-05-04 22:43 | 28.94157 | 42.31226 | 33938 ft | 416 kts | 302° |
| 2026-05-04 22:43 | 28.98077 | 42.26359 | 33946 ft | 416 kts | 302° |
| 2026-05-04 22:44 | 29.01963 | 42.21530 | 33953 ft | 415 kts | 302° |
| 2026-05-04 22:44 | 29.05871 | 42.16652 | 33957 ft | 415 kts | 301° |
| 2026-05-04 22:45 | 29.09760 | 42.11780 | 33959 ft | 415 kts | 301° |
| 2026-05-04 22:45 | 29.14952 | 42.05283 | 33960 ft | 415 kts | 301° |
| 2026-05-04 22:46 | 29.19481 | 41.99616 | 33959 ft | 415 kts | 301° |
| 2026-05-04 22:46 | 29.22744 | 41.95530 | 33969 ft | 414 kts | 301° |
| 2026-05-04 22:47 | 29.26609 | 41.90686 | 34021 ft | 416 kts | 301° |
| 2026-05-04 22:47 | 29.28570 | 41.88224 | 34132 ft | 419 kts | 301° |
| 2026-05-04 22:47 | 29.30539 | 41.85755 | 34383 ft | 419 kts | 301° |
| 2026-05-04 22:48 | 29.32501 | 41.83295 | 34677 ft | 417 kts | 301° |
| 2026-05-04 22:48 | 29.34459 | 41.80838 | 34951 ft | 416 kts | 301° |
| 2026-05-04 22:48 | 29.36415 | 41.78382 | 35208 ft | 416 kts | 301° |
| 2026-05-04 22:48 | 29.38339 | 41.75963 | 35464 ft | 415 kts | 301° |
| 2026-05-04 22:49 | 29.40282 | 41.73520 | 35722 ft | 414 kts | 301° |
| 2026-05-04 22:49 | 29.42226 | 41.71071 | 35914 ft | 416 kts | 301° |
| 2026-05-04 22:49 | 29.46130 | 41.66153 | 35985 ft | 414 kts | 301° |
| 2026-05-04 22:50 | 29.49993 | 41.61279 | 35992 ft | 413 kts | 301° |
| 2026-05-04 22:50 | 29.53864 | 41.56387 | 35996 ft | 416 kts | 300° |
| 2026-05-04 22:51 | 29.57757 | 41.51466 | 36002 ft | 415 kts | 300° |
| 2026-05-04 22:51 | 29.61629 | 41.46565 | 36031 ft | 413 kts | 300° |
| 2026-05-04 22:52 | 29.65480 | 41.41680 | 36041 ft | 414 kts | 300° |
| 2026-05-04 22:52 | 29.69356 | 41.36761 | 36046 ft | 414 kts | 300° |
| 2026-05-04 22:53 | 29.73227 | 41.31844 | 36052 ft | 415 kts | 301° |
| 2026-05-04 22:53 | 29.77467 | 41.27259 | 36058 ft | 423 kts | 306° |
| 2026-05-04 22:54 | 29.81856 | 41.22710 | 36063 ft | 424 kts | 306° |
| 2026-05-04 22:54 | 29.86250 | 41.18173 | 36068 ft | 424 kts | 306° |
| 2026-05-04 22:55 | 29.90658 | 41.13631 | 36075 ft | 425 kts | 306° |
| 2026-05-04 22:55 | 29.95082 | 41.09076 | 36078 ft | 426 kts | 306° |
| 2026-05-04 22:56 | 29.99485 | 41.04545 | 36079 ft | 427 kts | 306° |
| 2026-05-04 22:56 | 30.03914 | 40.99985 | 36080 ft | 426 kts | 306° |
| 2026-05-04 22:57 | 30.08344 | 40.95419 | 36081 ft | 427 kts | 306° |
| 2026-05-04 22:57 | 30.12772 | 40.90853 | 36081 ft | 427 kts | 306° |
| 2026-05-04 22:58 | 30.17200 | 40.86281 | 36082 ft | 426 kts | 306° |
| 2026-05-04 22:58 | 30.21624 | 40.81709 | 36072 ft | 427 kts | 306° |
| 2026-05-04 22:59 | 30.26047 | 40.77132 | 36066 ft | 426 kts | 306° |
| 2026-05-04 22:59 | 30.30469 | 40.72551 | 36060 ft | 427 kts | 306° |
| 2026-05-04 23:00 | 30.34888 | 40.67968 | 36056 ft | 426 kts | 306° |
| 2026-05-04 23:00 | 30.39276 | 40.63414 | 36051 ft | 427 kts | 306° |
| 2026-05-04 23:01 | 30.43713 | 40.58842 | 36015 ft | 427 kts | 306° |
| 2026-05-04 23:01 | 30.48162 | 40.54268 | 35990 ft | 427 kts | 306° |
| 2026-05-04 23:02 | 30.52616 | 40.49692 | 35961 ft | 426 kts | 306° |
| 2026-05-04 23:02 | 30.57056 | 40.45131 | 35934 ft | 426 kts | 306° |
| 2026-05-04 23:03 | 30.61462 | 40.40601 | 35932 ft | 426 kts | 306° |
| 2026-05-04 23:03 | 30.65898 | 40.36038 | 35932 ft | 426 kts | 306° |
| 2026-05-04 23:04 | 30.70340 | 40.31466 | 35932 ft | 426 kts | 306° |
| 2026-05-04 23:04 | 30.74770 | 40.26901 | 35932 ft | 425 kts | 306° |
| 2026-05-04 23:05 | 30.79195 | 40.22335 | 35933 ft | 425 kts | 306° |
| 2026-05-04 23:05 | 30.83620 | 40.17764 | 35933 ft | 425 kts | 306° |
| 2026-05-04 23:06 | 30.88037 | 40.13197 | 35933 ft | 425 kts | 306° |
| 2026-05-04 23:06 | 30.92423 | 40.08655 | 35933 ft | 424 kts | 306° |
| 2026-05-04 23:07 | 30.96827 | 40.04088 | 35934 ft | 423 kts | 306° |
| 2026-05-04 23:07 | 31.01234 | 39.99512 | 35935 ft | 423 kts | 306° |
| 2026-05-04 23:08 | 31.05607 | 39.94967 | 35935 ft | 423 kts | 306° |
| 2026-05-04 23:08 | 31.09998 | 39.90396 | 35937 ft | 423 kts | 306° |
| 2026-05-04 23:09 | 31.14394 | 39.85816 | 35940 ft | 423 kts | 306° |
| 2026-05-04 23:09 | 31.18789 | 39.81229 | 35944 ft | 423 kts | 306° |
| 2026-05-04 23:10 | 31.23191 | 39.76631 | 35949 ft | 424 kts | 306° |
| 2026-05-04 23:10 | 31.27582 | 39.72038 | 35954 ft | 423 kts | 306° |
| 2026-05-04 23:11 | 31.31968 | 39.67443 | 35960 ft | 423 kts | 306° |
| 2026-05-04 23:11 | 31.36336 | 39.62862 | 35964 ft | 423 kts | 306° |
| 2026-05-04 23:12 | 31.40735 | 39.58242 | 35968 ft | 423 kts | 306° |
| 2026-05-04 23:12 | 31.45103 | 39.53616 | 35971 ft | 423 kts | 306° |
| 2026-05-04 23:13 | 31.49422 | 39.49005 | 35985 ft | 424 kts | 306° |
| 2026-05-04 23:13 | 31.53809 | 39.44338 | 36044 ft | 426 kts | 306° |
| 2026-05-04 23:14 | 31.58209 | 39.39670 | 36023 ft | 426 kts | 306° |
| 2026-05-04 23:14 | 31.62606 | 39.35005 | 36023 ft | 426 kts | 306° |
| 2026-05-04 23:15 | 31.66990 | 39.30353 | 36028 ft | 426 kts | 306° |
| 2026-05-04 23:15 | 31.71393 | 39.25678 | 36032 ft | 426 kts | 306° |
| 2026-05-04 23:16 | 31.75801 | 39.20995 | 36037 ft | 426 kts | 306° |
| 2026-05-04 23:16 | 31.80204 | 39.16372 | 36039 ft | 432 kts | 309° |
| 2026-05-04 23:17 | 31.82749 | 39.14364 | 36041 ft | 449 kts | 319° |
| 2026-05-04 23:17 | 31.85576 | 39.12707 | 36046 ft | 455 kts | 322° |
| 2026-05-04 23:17 | 31.91303 | 39.09503 | 36047 ft | 456 kts | 322° |
| 2026-05-04 23:18 | 31.97049 | 39.06302 | 36049 ft | 456 kts | 322° |
| 2026-05-04 23:18 | 32.02792 | 39.03095 | 36050 ft | 455 kts | 321° |
| 2026-05-04 23:19 | 32.08404 | 38.99782 | 36051 ft | 453 kts | 321° |
| 2026-05-04 23:19 | 32.14031 | 38.96446 | 36050 ft | 452 kts | 321° |
| 2026-05-04 23:20 | 32.19651 | 38.93113 | 36048 ft | 451 kts | 321° |
| 2026-05-04 23:20 | 32.25269 | 38.89781 | 36046 ft | 450 kts | 322° |
| 2026-05-04 23:21 | 32.30830 | 38.86481 | 36042 ft | 450 kts | 322° |
| 2026-05-04 23:21 | 32.36429 | 38.83156 | 36029 ft | 451 kts | 323° |
| 2026-05-04 23:22 | 32.42057 | 38.79813 | 36003 ft | 451 kts | 323° |
| 2026-05-04 23:22 | 32.47641 | 38.76495 | 35992 ft | 451 kts | 324° |
| 2026-05-04 23:23 | 32.53250 | 38.73159 | 35984 ft | 451 kts | 324° |
| 2026-05-04 23:23 | 32.58852 | 38.69825 | 35978 ft | 450 kts | 324° |
| 2026-05-04 23:24 | 32.64450 | 38.66473 | 35959 ft | 451 kts | 324° |
| 2026-05-04 23:24 | 32.70052 | 38.63118 | 35944 ft | 451 kts | 324° |
| 2026-05-04 23:25 | 32.75656 | 38.59761 | 35941 ft | 451 kts | 324° |
| 2026-05-04 23:25 | 32.81270 | 38.56396 | 35937 ft | 451 kts | 323° |
| 2026-05-04 23:26 | 32.86849 | 38.53049 | 35934 ft | 452 kts | 323° |
| 2026-05-04 23:26 | 32.92468 | 38.49676 | 35931 ft | 452 kts | 323° |
| 2026-05-04 23:27 | 32.98088 | 38.46295 | 35928 ft | 452 kts | 322° |
| 2026-05-04 23:27 | 33.03703 | 38.42900 | 35925 ft | 452 kts | 322° |
| 2026-05-04 23:28 | 33.09319 | 38.39503 | 35922 ft | 453 kts | 322° |
| 2026-05-04 23:28 | 33.14938 | 38.36102 | 35920 ft | 453 kts | 321° |
| 2026-05-04 23:29 | 33.20528 | 38.32717 | 35919 ft | 453 kts | 321° |
| 2026-05-04 23:29 | 33.26149 | 38.29291 | 35918 ft | 453 kts | 321° |
| 2026-05-04 23:30 | 33.31763 | 38.25864 | 35918 ft | 453 kts | 321° |
| 2026-05-04 23:30 | 33.37374 | 38.22436 | 35918 ft | 452 kts | 321° |
| 2026-05-04 23:31 | 33.42980 | 38.19010 | 35918 ft | 452 kts | 321° |
| 2026-05-04 23:31 | 33.48552 | 38.15612 | 35919 ft | 452 kts | 321° |
| 2026-05-04 23:32 | 33.54172 | 38.12196 | 35919 ft | 452 kts | 321° |
| 2026-05-04 23:32 | 33.59784 | 38.08784 | 35920 ft | 452 kts | 321° |
| 2026-05-04 23:33 | 33.65398 | 38.05367 | 35921 ft | 452 kts | 322° |
| 2026-05-04 23:33 | 33.71009 | 38.01950 | 35921 ft | 452 kts | 322° |
| 2026-05-04 23:34 | 33.76595 | 37.98545 | 35918 ft | 454 kts | 321° |
| 2026-05-04 23:34 | 33.82230 | 37.95106 | 35910 ft | 454 kts | 320° |
| 2026-05-04 23:35 | 33.84865 | 37.93133 | 35908 ft | 439 kts | 311° |
| 2026-05-04 23:35 | 33.87115 | 37.90747 | 35909 ft | 423 kts | 302° |
| 2026-05-04 23:35 | 33.88949 | 37.88059 | 35909 ft | 410 kts | 293° |
| 2026-05-04 23:35 | 33.90521 | 37.85211 | 35910 ft | 408 kts | 292° |
| 2026-05-04 23:36 | 33.93601 | 37.79526 | 35909 ft | 407 kts | 291° |
| 2026-05-04 23:36 | 33.96675 | 37.73770 | 35911 ft | 408 kts | 291° |
| 2026-05-04 23:37 | 33.99715 | 37.68027 | 35912 ft | 408 kts | 291° |
| 2026-05-04 23:37 | 34.02758 | 37.62240 | 35914 ft | 409 kts | 292° |
| 2026-05-04 23:38 | 34.05799 | 37.56436 | 35915 ft | 409 kts | 292° |
| 2026-05-04 23:38 | 34.08324 | 37.51603 | 35916 ft | 409 kts | 292° |
| 2026-05-04 23:39 | 34.11358 | 37.45789 | 35915 ft | 409 kts | 291° |
| 2026-05-04 23:39 | 34.14382 | 37.39970 | 35913 ft | 409 kts | 291° |
| 2026-05-04 23:40 | 34.17387 | 37.34177 | 35912 ft | 409 kts | 291° |
| 2026-05-04 23:40 | 34.20076 | 37.28216 | 35911 ft | 396 kts | 282° |
| 2026-05-04 23:41 | 34.21470 | 37.21940 | 35911 ft | 380 kts | 269° |
| 2026-05-04 23:41 | 34.22074 | 37.15609 | 35910 ft | 379 kts | 268° |
| 2026-05-04 23:42 | 34.22629 | 37.09261 | 35906 ft | 379 kts | 268° |
| 2026-05-04 23:42 | 34.23156 | 37.02916 | 35904 ft | 379 kts | 268° |
| 2026-05-04 23:43 | 34.23664 | 36.96611 | 35904 ft | 379 kts | 267° |
| 2026-05-04 23:43 | 34.24164 | 36.90267 | 35904 ft | 379 kts | 267° |
| 2026-05-04 23:44 | 34.24658 | 36.83925 | 35904 ft | 379 kts | 267° |
| 2026-05-04 23:44 | 34.25147 | 36.77575 | 35904 ft | 379 kts | 267° |
| 2026-05-04 23:45 | 34.25632 | 36.71221 | 35904 ft | 380 kts | 267° |
| 2026-05-04 23:45 | 34.26111 | 36.64892 | 35904 ft | 380 kts | 267° |
| 2026-05-04 23:46 | 34.26573 | 36.58516 | 35904 ft | 379 kts | 266° |
| 2026-05-04 23:46 | 34.26819 | 36.52165 | 35904 ft | 378 kts | 265° |
| 2026-05-04 23:47 | 34.27058 | 36.45783 | 35932 ft | 380 kts | 265° |
| 2026-05-04 23:47 | 34.27181 | 36.42602 | 36401 ft | 375 kts | 265° |
| 2026-05-04 23:47 | 34.27301 | 36.39478 | 36897 ft | 370 kts | 265° |
| 2026-05-04 23:48 | 34.27417 | 36.36419 | 37388 ft | 365 kts | 265° |
| 2026-05-04 23:48 | 34.27532 | 36.33360 | 37762 ft | 364 kts | 265° |
| 2026-05-04 23:48 | 34.27645 | 36.30279 | 37869 ft | 369 kts | 265° |
| 2026-05-04 23:48 | 34.27758 | 36.27161 | 37898 ft | 375 kts | 265° |
| 2026-05-04 23:49 | 34.27992 | 36.20745 | 37907 ft | 387 kts | 265° |
| 2026-05-04 23:49 | 34.28227 | 36.14201 | 37915 ft | 393 kts | 266° |
| 2026-05-04 23:50 | 34.28470 | 36.07578 | 37846 ft | 394 kts | 267° |
| 2026-05-04 23:50 | 34.28588 | 36.04310 | 37255 ft | 393 kts | 267° |
| 2026-05-04 23:50 | 34.28707 | 36.01014 | 36630 ft | 390 kts | 267° |
| 2026-05-04 23:51 | 34.28840 | 35.97748 | 36127 ft | 385 kts | 267° |
| 2026-05-04 23:51 | 34.28981 | 35.94533 | 35973 ft | 382 kts | 267° |
| 2026-05-04 23:51 | 34.29264 | 35.88048 | 35926 ft | 389 kts | 268° |
| 2026-05-04 23:52 | 34.29557 | 35.81479 | 35924 ft | 392 kts | 268° |
| 2026-05-04 23:52 | 34.29848 | 35.74946 | 35938 ft | 390 kts | 268° |
| 2026-05-04 23:53 | 34.30290 | 35.68371 | 35946 ft | 396 kts | 275° |
| 2026-05-04 23:53 | 34.31883 | 35.61903 | 35954 ft | 403 kts | 283° |
| 2026-05-04 23:54 | 34.33709 | 35.55490 | 35959 ft | 404 kts | 283° |
| 2026-05-04 23:54 | 34.35552 | 35.49112 | 35963 ft | 404 kts | 283° |
| 2026-05-04 23:55 | 34.37415 | 35.42705 | 35967 ft | 403 kts | 283° |
| 2026-05-04 23:56 | 34.40223 | 35.33063 | 35968 ft | 405 kts | 283° |
| 2026-05-04 23:56 | 34.42090 | 35.26655 | 35962 ft | 405 kts | 283° |
| 2026-05-04 23:57 | 34.43966 | 35.20212 | 35958 ft | 404 kts | 283° |
| 2026-05-04 23:57 | 34.45832 | 35.13787 | 35956 ft | 404 kts | 283° |
| 2026-05-04 23:58 | 34.48177 | 35.07547 | 35951 ft | 417 kts | 297° |
| 2026-05-04 23:58 | 34.50075 | 35.04824 | 35946 ft | 430 kts | 308° |
| 2026-05-04 23:58 | 34.52490 | 35.02584 | 35946 ft | 444 kts | 319° |
| 2026-05-04 23:59 | 34.57760 | 34.98705 | 35933 ft | 446 kts | 320° |
| 2026-05-04 23:59 | 34.63111 | 34.94822 | 35913 ft | 449 kts | 320° |
| 2026-05-05 00:00 | 34.68486 | 34.90943 | 35902 ft | 450 kts | 320° |
| 2026-05-05 00:00 | 34.73876 | 34.87064 | 35895 ft | 450 kts | 320° |
| 2026-05-05 00:01 | 34.79285 | 34.83179 | 35890 ft | 451 kts | 320° |
| 2026-05-05 00:01 | 34.84659 | 34.79322 | 35887 ft | 451 kts | 320° |
| 2026-05-05 00:02 | 34.90079 | 34.75435 | 35885 ft | 451 kts | 320° |
| 2026-05-05 00:02 | 34.95440 | 34.71591 | 35881 ft | 448 kts | 321° |
| 2026-05-05 00:03 | 35.00820 | 34.67728 | 35882 ft | 448 kts | 321° |
| 2026-05-05 00:03 | 35.06193 | 34.63858 | 35883 ft | 447 kts | 321° |
| 2026-05-05 00:04 | 35.11523 | 34.60011 | 35885 ft | 447 kts | 321° |
| 2026-05-05 00:04 | 35.16877 | 34.56148 | 35888 ft | 446 kts | 321° |
| 2026-05-05 00:05 | 35.22220 | 34.52293 | 35890 ft | 446 kts | 321° |
| 2026-05-05 00:05 | 35.27567 | 34.48434 | 35891 ft | 445 kts | 321° |
| 2026-05-05 00:06 | 35.32935 | 34.44550 | 35893 ft | 451 kts | 321° |
| 2026-05-05 00:06 | 35.38312 | 34.40666 | 35894 ft | 450 kts | 322° |
| 2026-05-05 00:07 | 35.43717 | 34.36758 | 35896 ft | 450 kts | 322° |
| 2026-05-05 00:07 | 35.49095 | 34.32865 | 35897 ft | 451 kts | 322° |
| 2026-05-05 00:08 | 35.54509 | 34.28936 | 35897 ft | 451 kts | 322° |
| 2026-05-05 00:08 | 35.59919 | 34.25009 | 35898 ft | 451 kts | 323° |
| 2026-05-05 00:09 | 35.65333 | 34.21074 | 35898 ft | 452 kts | 323° |
| 2026-05-05 00:09 | 35.70709 | 34.17153 | 35899 ft | 452 kts | 322° |
| 2026-05-05 00:10 | 35.76103 | 34.13155 | 35900 ft | 452 kts | 323° |
| 2026-05-05 00:10 | 35.81471 | 34.09175 | 35901 ft | 452 kts | 323° |
| 2026-05-05 00:11 | 35.86858 | 34.05181 | 35902 ft | 451 kts | 323° |
| 2026-05-05 00:11 | 35.92236 | 34.01182 | 35903 ft | 451 kts | 323° |
| 2026-05-05 00:12 | 35.97595 | 33.97132 | 35904 ft | 451 kts | 322° |
| 2026-05-05 00:12 | 36.02918 | 33.93106 | 35904 ft | 451 kts | 322° |
| 2026-05-05 00:13 | 36.08275 | 33.89053 | 35904 ft | 451 kts | 322° |
| 2026-05-05 00:13 | 36.13602 | 33.85018 | 35911 ft | 450 kts | 323° |
| 2026-05-05 00:14 | 36.18950 | 33.80965 | 35916 ft | 451 kts | 323° |
| 2026-05-05 00:14 | 36.24301 | 33.76904 | 35923 ft | 451 kts | 323° |
| 2026-05-05 00:15 | 36.29648 | 33.72827 | 35931 ft | 451 kts | 323° |
| 2026-05-05 00:15 | 36.34994 | 33.68740 | 35939 ft | 451 kts | 323° |
| 2026-05-05 00:16 | 36.40305 | 33.64678 | 35947 ft | 451 kts | 323° |
| 2026-05-05 00:16 | 36.45655 | 33.60584 | 35956 ft | 452 kts | 323° |
| 2026-05-05 00:17 | 36.51017 | 33.56477 | 35963 ft | 453 kts | 323° |
| 2026-05-05 00:17 | 36.56410 | 33.52340 | 35969 ft | 455 kts | 324° |
| 2026-05-05 00:18 | 36.61753 | 33.48238 | 35975 ft | 453 kts | 324° |
| 2026-05-05 00:18 | 36.67116 | 33.44116 | 35976 ft | 453 kts | 324° |
| 2026-05-05 00:19 | 36.72492 | 33.39980 | 35973 ft | 453 kts | 324° |
| 2026-05-05 00:19 | 36.77864 | 33.35840 | 35968 ft | 453 kts | 324° |
| 2026-05-05 00:20 | 36.83198 | 33.31723 | 35961 ft | 453 kts | 324° |
| 2026-05-05 00:20 | 36.88330 | 33.27209 | 35953 ft | 448 kts | 313° |
| 2026-05-05 00:21 | 36.92605 | 33.21550 | 35948 ft | 447 kts | 310° |
| 2026-05-05 00:21 | 36.96790 | 33.15875 | 35942 ft | 446 kts | 309° |
| 2026-05-05 00:22 | 37.00991 | 33.10147 | 35938 ft | 446 kts | 309° |
| 2026-05-05 00:22 | 37.05191 | 33.04405 | 35936 ft | 446 kts | 309° |
| 2026-05-05 00:23 | 37.09351 | 32.98702 | 35936 ft | 446 kts | 309° |
| 2026-05-05 00:23 | 37.13528 | 32.92959 | 35937 ft | 445 kts | 309° |
| 2026-05-05 00:24 | 37.17694 | 32.87216 | 35934 ft | 444 kts | 309° |
| 2026-05-05 00:24 | 37.21844 | 32.81482 | 35933 ft | 442 kts | 309° |
| 2026-05-05 00:25 | 37.25975 | 32.75764 | 35934 ft | 441 kts | 309° |
| 2026-05-05 00:25 | 37.30070 | 32.70084 | 35934 ft | 441 kts | 309° |
| 2026-05-05 00:26 | 37.34179 | 32.64375 | 35934 ft | 441 kts | 309° |
| 2026-05-05 00:26 | 37.38297 | 32.58643 | 35934 ft | 440 kts | 309° |
| 2026-05-05 00:27 | 37.41709 | 32.53885 | 35934 ft | 440 kts | 310° |
| 2026-05-05 00:27 | 37.46478 | 32.47224 | 35934 ft | 440 kts | 309° |
| 2026-05-05 00:28 | 37.49878 | 32.42462 | 35933 ft | 438 kts | 310° |
| 2026-05-05 00:28 | 37.53963 | 32.36738 | 35934 ft | 439 kts | 310° |
| 2026-05-05 00:29 | 37.58022 | 32.31041 | 35934 ft | 439 kts | 310° |
| 2026-05-05 00:29 | 37.62107 | 32.25295 | 35934 ft | 439 kts | 310° |
| 2026-05-05 00:30 | 37.66194 | 32.19536 | 35934 ft | 439 kts | 310° |
| 2026-05-05 00:30 | 37.70252 | 32.13808 | 35934 ft | 440 kts | 310° |
| 2026-05-05 00:31 | 37.74339 | 32.08028 | 35934 ft | 440 kts | 310° |
| 2026-05-05 00:31 | 37.78397 | 32.02278 | 35934 ft | 441 kts | 310° |
| 2026-05-05 00:32 | 37.82486 | 31.96474 | 35936 ft | 440 kts | 310° |
| 2026-05-05 00:32 | 37.86543 | 31.90706 | 35938 ft | 441 kts | 310° |
| 2026-05-05 00:33 | 37.90628 | 31.84888 | 35938 ft | 441 kts | 310° |
| 2026-05-05 00:33 | 37.94698 | 31.79079 | 35940 ft | 440 kts | 310° |
| 2026-05-05 00:34 | 37.98739 | 31.73302 | 35942 ft | 439 kts | 310° |
| 2026-05-05 00:34 | 38.02785 | 31.67505 | 35947 ft | 438 kts | 310° |
| 2026-05-05 00:35 | 38.06828 | 31.61703 | 35953 ft | 438 kts | 310° |
| 2026-05-05 00:35 | 38.10858 | 31.55903 | 35961 ft | 438 kts | 310° |
| 2026-05-05 00:36 | 38.14866 | 31.50129 | 35969 ft | 437 kts | 310° |
| 2026-05-05 00:36 | 38.18900 | 31.44321 | 35977 ft | 437 kts | 311° |
| 2026-05-05 00:37 | 38.22933 | 31.38514 | 35982 ft | 437 kts | 311° |
| 2026-05-05 00:37 | 38.26940 | 31.32747 | 35986 ft | 437 kts | 311° |
| 2026-05-05 00:38 | 38.30974 | 31.26937 | 35988 ft | 437 kts | 311° |
| 2026-05-05 00:38 | 38.34983 | 31.21154 | 35988 ft | 437 kts | 311° |
| 2026-05-05 00:39 | 38.39011 | 31.15337 | 35986 ft | 438 kts | 311° |
| 2026-05-05 00:39 | 38.41033 | 31.12414 | 35774 ft | 439 kts | 311° |
| 2026-05-05 00:39 | 38.43041 | 31.09508 | 35523 ft | 434 kts | 311° |
| 2026-05-05 00:39 | 38.45012 | 31.06650 | 35276 ft | 433 kts | 311° |
| 2026-05-05 00:40 | 38.46988 | 31.03782 | 34777 ft | 428 kts | 311° |
| 2026-05-05 00:40 | 38.48951 | 31.00918 | 34092 ft | 426 kts | 311° |
| 2026-05-05 00:40 | 38.50887 | 30.98075 | 33656 ft | 418 kts | 311° |
| 2026-05-05 00:40 | 38.52776 | 30.95301 | 33219 ft | 411 kts | 312° |
| 2026-05-05 00:41 | 38.54615 | 30.92600 | 32793 ft | 404 kts | 312° |
| 2026-05-05 00:41 | 38.56446 | 30.89914 | 32379 ft | 397 kts | 313° |
| 2026-05-05 00:41 | 38.58246 | 30.87272 | 31981 ft | 392 kts | 314° |
| 2026-05-05 00:41 | 38.60055 | 30.84620 | 31590 ft | 401 kts | 314° |
| 2026-05-05 00:42 | 38.61905 | 30.81915 | 31169 ft | 405 kts | 314° |
| 2026-05-05 00:42 | 38.63762 | 30.79195 | 30754 ft | 403 kts | 315° |
| 2026-05-05 00:42 | 38.65576 | 30.76538 | 30343 ft | 399 kts | 315° |
| 2026-05-05 00:42 | 38.67403 | 30.73860 | 29937 ft | 397 kts | 316° |
| 2026-05-05 00:43 | 38.69212 | 30.71210 | 29528 ft | 394 kts | 316° |
| 2026-05-05 00:43 | 38.71012 | 30.68573 | 29131 ft | 391 kts | 316° |
| 2026-05-05 00:43 | 38.72800 | 30.65952 | 28733 ft | 388 kts | 316° |
| 2026-05-05 00:43 | 38.74568 | 30.63357 | 28331 ft | 385 kts | 316° |
| 2026-05-05 00:44 | 38.76303 | 30.60809 | 27945 ft | 382 kts | 316° |
| 2026-05-05 00:44 | 38.78067 | 30.58264 | 27549 ft | 378 kts | 319° |
| 2026-05-05 00:44 | 38.79972 | 30.55984 | 27163 ft | 371 kts | 325° |
| 2026-05-05 00:44 | 38.82044 | 30.54053 | 26781 ft | 365 kts | 332° |
| 2026-05-05 00:45 | 38.84249 | 30.52460 | 26394 ft | 360 kts | 336° |
| 2026-05-05 00:45 | 38.86436 | 30.50997 | 26033 ft | 357 kts | 336° |
| 2026-05-05 00:45 | 38.88638 | 30.49545 | 25667 ft | 354 kts | 336° |
| 2026-05-05 00:45 | 38.90823 | 30.48116 | 25305 ft | 351 kts | 337° |
| 2026-05-05 00:46 | 38.92996 | 30.46704 | 24958 ft | 348 kts | 337° |
| 2026-05-05 00:46 | 38.95162 | 30.45303 | 24598 ft | 346 kts | 337° |
| 2026-05-05 00:46 | 38.97311 | 30.43917 | 24248 ft | 343 kts | 337° |
| 2026-05-05 00:46 | 38.99412 | 30.42565 | 23908 ft | 341 kts | 337° |
| 2026-05-05 00:47 | 39.01528 | 30.41204 | 23558 ft | 338 kts | 337° |
| 2026-05-05 00:47 | 39.03628 | 30.39853 | 23213 ft | 336 kts | 337° |
| 2026-05-05 00:47 | 39.05712 | 30.38514 | 22857 ft | 333 kts | 337° |
| 2026-05-05 00:47 | 39.07788 | 30.37179 | 22514 ft | 331 kts | 337° |
| 2026-05-05 00:48 | 39.09821 | 30.35872 | 22192 ft | 330 kts | 337° |
| 2026-05-05 00:48 | 39.11870 | 30.34553 | 21863 ft | 328 kts | 337° |
| 2026-05-05 00:48 | 39.13902 | 30.33245 | 21530 ft | 326 kts | 337° |
| 2026-05-05 00:48 | 39.15929 | 30.31940 | 21206 ft | 324 kts | 337° |
| 2026-05-05 00:49 | 39.17937 | 30.30646 | 20879 ft | 322 kts | 337° |
| 2026-05-05 00:49 | 39.19943 | 30.29353 | 20557 ft | 320 kts | 337° |
| 2026-05-05 00:49 | 39.21906 | 30.28086 | 20245 ft | 318 kts | 337° |
| 2026-05-05 00:49 | 39.23885 | 30.26809 | 19925 ft | 317 kts | 337° |
| 2026-05-05 00:50 | 39.25847 | 30.25541 | 19610 ft | 315 kts | 337° |
| 2026-05-05 00:50 | 39.27803 | 30.24276 | 19300 ft | 313 kts | 337° |
| 2026-05-05 00:50 | 39.29753 | 30.23015 | 18991 ft | 312 kts | 337° |
| 2026-05-05 00:50 | 39.31690 | 30.21762 | 18685 ft | 310 kts | 337° |
| 2026-05-05 00:51 | 39.33619 | 30.20512 | 18381 ft | 309 kts | 337° |
| 2026-05-05 00:51 | 39.35537 | 30.19269 | 18078 ft | 307 kts | 337° |
| 2026-05-05 00:51 | 39.37442 | 30.18034 | 17778 ft | 306 kts | 337° |
| 2026-05-05 00:51 | 39.39339 | 30.16813 | 17475 ft | 304 kts | 335° |
| 2026-05-05 00:52 | 39.41206 | 30.15602 | 17179 ft | 303 kts | 335° |
| 2026-05-05 00:52 | 39.43089 | 30.14373 | 16880 ft | 302 kts | 335° |
| 2026-05-05 00:52 | 39.44960 | 30.13154 | 16583 ft | 300 kts | 335° |
| 2026-05-05 00:52 | 39.46851 | 30.12011 | 16288 ft | 299 kts | 338° |
| 2026-05-05 00:53 | 39.48755 | 30.10940 | 15994 ft | 297 kts | 338° |
| 2026-05-05 00:53 | 39.50652 | 30.09877 | 15701 ft | 296 kts | 339° |
| 2026-05-05 00:53 | 39.52535 | 30.08825 | 15412 ft | 294 kts | 339° |
| 2026-05-05 00:53 | 39.54415 | 30.07776 | 15123 ft | 293 kts | 339° |
| 2026-05-05 00:54 | 39.56258 | 30.06748 | 14840 ft | 292 kts | 339° |
| 2026-05-05 00:54 | 39.58115 | 30.05712 | 14554 ft | 290 kts | 339° |
| 2026-05-05 00:54 | 39.59972 | 30.04676 | 14267 ft | 289 kts | 339° |
| 2026-05-05 00:54 | 39.61814 | 30.03649 | 13983 ft | 287 kts | 339° |
| 2026-05-05 00:55 | 39.63650 | 30.02624 | 13698 ft | 286 kts | 339° |
| 2026-05-05 00:55 | 39.65473 | 30.01606 | 13415 ft | 284 kts | 339° |
| 2026-05-05 00:55 | 39.67288 | 30.00592 | 13132 ft | 283 kts | 339° |
| 2026-05-05 00:55 | 39.69081 | 29.99587 | 12843 ft | 288 kts | 339° |
| 2026-05-05 00:56 | 39.70918 | 29.98554 | 12575 ft | 286 kts | 340° |
| 2026-05-05 00:56 | 39.72746 | 29.97533 | 12284 ft | 285 kts | 340° |
| 2026-05-05 00:56 | 39.74560 | 29.96519 | 11996 ft | 283 kts | 340° |
| 2026-05-05 00:56 | 39.76364 | 29.95505 | 11710 ft | 281 kts | 340° |
| 2026-05-05 00:57 | 39.78159 | 29.94496 | 11414 ft | 281 kts | 340° |
| 2026-05-05 00:57 | 39.79943 | 29.93493 | 11090 ft | 277 kts | 340° |
| 2026-05-05 00:57 | 39.81692 | 29.92509 | 10877 ft | 268 kts | 341° |
| 2026-05-05 00:57 | 39.83350 | 29.91575 | 10678 ft | 261 kts | 341° |
| 2026-05-05 00:58 | 39.85018 | 29.90638 | 10328 ft | 259 kts | 341° |
| 2026-05-05 00:58 | 39.86664 | 29.89712 | 10069 ft | 254 kts | 341° |
| 2026-05-05 00:58 | 39.88281 | 29.88802 | 9993 ft | 253 kts | 341° |
| 2026-05-05 00:58 | 39.89891 | 29.87867 | 9892 ft | 254 kts | 339° |
| 2026-05-05 00:59 | 39.91455 | 29.86758 | 9650 ft | 256 kts | 334° |
| 2026-05-05 00:59 | 39.92924 | 29.85452 | 9380 ft | 256 kts | 329° |
| 2026-05-05 00:59 | 39.94351 | 29.84072 | 9112 ft | 255 kts | 328° |
| 2026-05-05 00:59 | 39.95767 | 29.82692 | 8842 ft | 253 kts | 328° |
| 2026-05-05 01:00 | 39.97163 | 29.81320 | 8573 ft | 252 kts | 328° |
| 2026-05-05 01:00 | 39.98559 | 29.79942 | 8304 ft | 251 kts | 327° |
| 2026-05-05 01:00 | 39.99935 | 29.78578 | 8036 ft | 250 kts | 327° |
| 2026-05-05 01:00 | 40.01318 | 29.77205 | 7764 ft | 249 kts | 327° |
| 2026-05-05 01:01 | 40.02695 | 29.75835 | 7490 ft | 248 kts | 327° |
| 2026-05-05 01:01 | 40.04063 | 29.74473 | 7220 ft | 247 kts | 327° |
| 2026-05-05 01:01 | 40.05556 | 29.73453 | 6941 ft | 241 kts | 347° |
| 2026-05-05 01:01 | 40.07204 | 29.73449 | 6694 ft | 238 kts | 13° |
| 2026-05-05 01:02 | 40.08672 | 29.74496 | 6569 ft | 247 kts | 38° |
| 2026-05-05 01:02 | 40.09665 | 29.76365 | 6322 ft | 258 kts | 61° |
| 2026-05-05 01:02 | 40.10333 | 29.78541 | 6009 ft | 256 kts | 61° |
| 2026-05-05 01:02 | 40.11097 | 29.80620 | 5704 ft | 253 kts | 57° |
| 2026-05-05 01:03 | 40.12045 | 29.82532 | 5415 ft | 249 kts | 47° |
| 2026-05-05 01:03 | 40.13220 | 29.84130 | 5131 ft | 245 kts | 38° |
| 2026-05-05 01:03 | 40.14557 | 29.85485 | 4846 ft | 243 kts | 31° |
| 2026-05-05 01:03 | 40.15999 | 29.86625 | 4641 ft | 241 kts | 25° |
| 2026-05-05 01:04 | 40.17518 | 29.87585 | 4517 ft | 242 kts | 21° |
| 2026-05-05 01:04 | 40.20690 | 29.88987 | 4338 ft | 242 kts | 12° |
| 2026-05-05 01:04 | 40.22333 | 29.89448 | 4288 ft | 240 kts | 8° |
| 2026-05-05 01:05 | 40.23989 | 29.89749 | 4235 ft | 240 kts | 5° |
| 2026-05-05 01:05 | 40.25656 | 29.89889 | 4186 ft | 239 kts | 0° |
| 2026-05-05 01:05 | 40.27273 | 29.89471 | 4129 ft | 240 kts | 336° |
| 2026-05-05 01:05 | 40.28565 | 29.88100 | 4100 ft | 244 kts | 310° |
| 2026-05-05 01:06 | 40.29458 | 29.86228 | 4096 ft | 237 kts | 304° |
| 2026-05-05 01:06 | 40.30283 | 29.84425 | 4086 ft | 224 kts | 304° |
| 2026-05-05 01:06 | 40.30949 | 29.82649 | 4058 ft | 213 kts | 287° |
| 2026-05-05 01:06 | 40.30896 | 29.80690 | 4088 ft | 221 kts | 260° |
| 2026-05-05 01:07 | 40.30429 | 29.78788 | 3970 ft | 223 kts | 257° |
| 2026-05-05 01:07 | 40.29976 | 29.76844 | 3679 ft | 223 kts | 258° |
| 2026-05-05 01:07 | 40.29549 | 29.74904 | 3406 ft | 219 kts | 258° |
| 2026-05-05 01:07 | 40.29141 | 29.73009 | 3107 ft | 213 kts | 258° |
| 2026-05-05 01:08 | 40.28747 | 29.71155 | 2817 ft | 208 kts | 257° |
| 2026-05-05 01:08 | 40.28369 | 29.69378 | 2571 ft | 194 kts | 257° |
| 2026-05-05 01:08 | 40.28025 | 29.67768 | 2305 ft | 172 kts | 257° |
| 2026-05-05 01:08 | 40.27724 | 29.66356 | 2076 ft | 157 kts | 257° |
| 2026-05-05 01:09 | 40.27443 | 29.65025 | 1875 ft | 147 kts | 258° |
| 2026-05-05 01:09 | 40.27177 | 29.63754 | 1687 ft | 140 kts | 256° |
| 2026-05-05 01:09 | 40.26920 | 29.62535 | 1501 ft | 139 kts | 255° |
| 2026-05-05 01:09 | 40.26659 | 29.61313 | 1327 ft | 138 kts | 255° |
| 2026-05-05 01:10 | 40.26399 | 29.60098 | 1151 ft | 138 kts | 254° |
| 2026-05-05 01:10 | 40.26138 | 29.58887 | 955 ft | 138 kts | 254° |
| 2026-05-05 01:10 | 40.25884 | 29.57684 | 787 ft | 136 kts | 254° |
| 2026-05-05 01:10 | 40.25670 | 29.56656 | 778 ft | 94 kts | 254° |
| 2026-05-05 01:11 | 40.25516 | 29.55935 | 778 ft | 71 kts | 254° |
| 2026-05-05 01:11 | 40.25403 | 29.55401 | 778 ft | 53 kts | 254° |
| 2026-05-05 01:11 | 40.25319 | 29.55003 | 778 ft | 38 kts | 254° |
| 2026-05-05 01:11 | 40.25256 | 29.54709 | 778 ft | 33 kts | 254° |
| 2026-05-05 01:12 | 40.25229 | 29.54575 | 778 ft | 5 kts | 272° |
| 2026-05-05 01:12 | 40.25257 | 29.54543 | 778 ft | 6 kts | 343° |
| 2026-05-05 01:12 | 40.25308 | 29.54523 | 778 ft | 9 kts | 343° |
| 2026-05-05 01:12 | 40.25373 | 29.54498 | 778 ft | 10 kts | 344° |
| 2026-05-05 01:13 | 40.25447 | 29.54470 | 778 ft | 12 kts | 344° |
| 2026-05-05 01:13 | 40.25523 | 29.54455 | 778 ft | 10 kts | 10° |
| 2026-05-05 01:13 | 40.25579 | 29.54453 | 778 ft | 7 kts | 343° |
| 2026-05-05 01:13 | 40.25595 | 29.54446 | 778 ft | 0 kts | 343° |